Time;durP1;ratioP1;P1;durP2;ratioP2;P2;SDS_P1;SDS_P2;PMS_P1;PMS_P2;Temp;Humidity;BMP_temperature;BMP_pressure;BME280_temperature;BME280_humidity;BME280_pressure;Samples;Min_cycle;Max_cycle;Signal;HPM_P1;HPM_P2
2021/04/26 00:01:23;;;;;;;13.98;8.10;;;;;;;;;;4956453;29;20027;-46
2021/04/26 00:03:49;;;;;;;27.85;15.50;;;;;;;;;;4956185;28;20023;-46
2021/04/26 00:06:15;;;;;;;29.02;15.60;;;;;;;;;;4956397;29;20039;-46
2021/04/26 00:08:41;;;;;;;21.63;12.13;;;;;;;;;;4956699;29;20472;-47
2021/04/26 00:11:07;;;;;;;26.33;13.10;;;;;;;;;;4956430;28;20433;-46
2021/04/26 00:13:34;;;;;;;18.10;10.57;;;;;;;;;;4956437;29;20038;-46
2021/04/26 00:16:00;;;;;;;19.05;10.32;;;;;;;;;;4956475;29;20502;-46
2021/04/26 00:18:26;;;;;;;27.88;14.73;;;;;;;;;;4956194;29;20042;-47
2021/04/26 00:20:52;;;;;;;33.13;18.13;;;;;;;;;;4956399;28;20027;-47
2021/04/26 00:23:18;;;;;;;42.20;20.75;;;;;;;;;;4956528;29;20424;-47
2021/04/26 00:25:46;;;;;;;51.40;26.60;;;;;;;;;;4956282;29;20464;-46
2021/04/26 00:28:13;;;;;;;45.83;25.88;;;;;;;;;;4956626;28;20038;-47
2021/04/26 00:30:39;;;;;;;35.15;22.38;;;;;;;;;;4956315;29;20058;-46
2021/04/26 00:33:05;;;;;;;54.03;29.65;;;;;;;;;;4956129;29;20118;-47
2021/04/26 00:35:31;;;;;;;23.17;13.77;;;;;;;;;;4956201;29;20400;-47
2021/04/26 00:37:57;;;;;;;71.88;42.05;;;;;;;;;;4956063;29;20054;-47
2021/04/26 00:40:24;;;;;;;76.85;43.78;;;;;;;;;;4955955;29;20538;-47
2021/04/26 00:42:52;;;;;;;38.28;22.05;;;;;;;;;;4955896;29;20031;-47
2021/04/26 00:45:20;;;;;;;64.30;36.85;;;;;;;;;;4955857;29;20031;-46
2021/04/26 00:47:47;;;;;;;77.22;45.70;;;;;;;;;;4954421;29;20035;-46
2021/04/26 00:50:20;;;;;;;42.72;24.38;;;;;;;;;;4955756;29;20027;-47
2021/04/26 00:52:48;;;;;;;54.80;33.28;;;;;;;;;;4955757;28;20035;-46
2021/04/26 00:55:15;;;;;;;60.60;35.95;;;;;;;;;;4938690;29;20019;-46
2021/04/26 00:57:41;;;;;;;65.30;38.65;;;;;;;;;;4955774;29;20038;-46
2021/04/26 01:00:08;;;;;;;60.10;33.63;;;;;;;;;;4955599;28;20050;-46
2021/04/26 01:02:35;;;;;;;70.53;40.40;;;;;;;;;;4955938;29;20019;-46
2021/04/26 01:05:01;;;;;;;42.38;24.15;;;;;;;;;;4955305;29;20019;-47
2021/04/26 01:07:28;;;;;;;41.25;24.60;;;;;;;;;;4955572;29;20463;-48
2021/04/26 01:09:54;;;;;;;37.55;23.33;;;;;;;;;;4955725;29;20078;-45
2021/04/26 01:12:35;;;;;;;31.35;19.80;;;;;;;;;;4955735;28;20480;-46
2021/04/26 01:15:16;;;;;;;43.10;24.67;;;;;;;;;;4955820;28;20523;-45
2021/04/26 01:17:44;;;;;;;47.03;25.20;;;;;;;;;;4954943;29;20063;-46
2021/04/26 01:20:29;;;;;;;39.15;23.10;;;;;;;;;;4955499;28;20047;-46
2021/04/26 01:23:07;;;;;;;33.83;21.30;;;;;;;;;;4955519;29;20023;-47
2021/04/26 01:25:36;;;;;;;48.42;29.27;;;;;;;;;;4955160;29;20043;-46
2021/04/26 01:28:20;;;;;;;36.50;18.73;;;;;;;;;;4955694;29;20032;-47
2021/04/26 01:31:05;;;;;;;30.75;19.35;;;;;;;;;;4955308;29;20023;-46
2021/04/26 01:33:33;;;;;;;24.75;16.23;;;;;;;;;;4955261;29;20039;-45
2021/04/26 01:36:01;;;;;;;42.38;23.60;;;;;;;;;;4953791;28;20396;-46
2021/04/26 01:38:36;;;;;;;27.70;16.58;;;;;;;;;;4953831;29;20047;-47
2021/04/26 01:41:02;;;;;;;31.70;18.48;;;;;;;;;;4955096;28;20184;-46
2021/04/26 01:43:29;;;;;;;29.05;17.67;;;;;;;;;;4955326;28;20027;-47
2021/04/26 01:45:57;;;;;;;26.50;17.52;;;;;;;;;;4955054;29;20082;-46
2021/04/26 01:48:23;;;;;;;42.50;22.38;;;;;;;;;;4955026;29;20020;-46
2021/04/26 01:50:50;;;;;;;45.35;25.98;;;;;;;;;;4955009;28;20024;-45
2021/04/26 01:53:18;;;;;;;35.88;23.27;;;;;;;;;;4954919;29;20031;-46
2021/04/26 01:55:45;;;;;;;37.97;23.90;;;;;;;;;;4954895;29;20023;-46
2021/04/26 01:58:12;;;;;;;52.90;30.27;;;;;;;;;;4955154;29;20031;-46
2021/04/26 02:00:38;;;;;;;56.78;33.40;;;;;;;;;;4954951;29;20043;-45
2021/04/26 02:03:06;;;;;;;48.40;30.23;;;;;;;;;;4954831;29;20035;-46
2021/04/26 02:05:33;;;;;;;38.25;23.30;;;;;;;;;;4954768;29;20079;-46
2021/04/26 02:08:00;;;;;;;28.83;18.70;;;;;;;;;;4954853;29;20043;-45
2021/04/26 02:10:30;;;;;;;38.70;24.33;;;;;;;;;;4954870;29;20498;-46
2021/04/26 02:13:00;;;;;;;35.60;20.80;;;;;;;;;;4954856;29;20072;-45
2021/04/26 02:15:30;;;;;;;45.08;24.80;;;;;;;;;;4954862;29;20515;-46
2021/04/26 02:17:56;;;;;;;28.88;18.77;;;;;;;;;;4954649;28;20078;-46
2021/04/26 02:20:23;;;;;;;23.90;15.45;;;;;;;;;;4954941;29;20445;-46
2021/04/26 02:22:50;;;;;;;28.95;16.30;;;;;;;;;;4954998;29;20361;-46
2021/04/26 02:25:16;;;;;;;31.83;18.65;;;;;;;;;;4954954;29;20448;-46
2021/04/26 02:27:42;;;;;;;20.80;14.73;;;;;;;;;;4956029;28;20066;-46
2021/04/26 02:30:09;;;;;;;23.45;15.07;;;;;;;;;;4958577;28;20027;-46
2021/04/26 02:32:42;;;;;;;19.25;14.07;;;;;;;;;;4958201;29;20114;-46
2021/04/26 02:35:10;;;;;;;23.08;16.33;;;;;;;;;;4958097;29;20051;-45
2021/04/26 02:37:56;;;;;;;23.20;14.82;;;;;;;;;;4958652;29;20513;-46
2021/04/26 02:40:22;;;;;;;20.45;14.68;;;;;;;;;;4958288;29;20023;-46
2021/04/26 02:42:52;;;;;;;20.90;14.73;;;;;;;;;;4958247;29;20027;-46
2021/04/26 02:45:24;;;;;;;20.75;13.93;;;;;;;;;;4958084;29;20026;-46
2021/04/26 02:47:50;;;;;;;20.88;13.35;;;;;;;;;;4958211;28;20525;-46
2021/04/26 02:50:20;;;;;;;19.38;14.10;;;;;;;;;;4957978;29;20035;-45
2021/04/26 02:52:48;;;;;;;19.55;12.85;;;;;;;;;;4957938;29;20448;-46
2021/04/26 02:55:14;;;;;;;17.92;12.98;;;;;;;;;;4958056;29;20046;-46
2021/04/26 02:57:41;;;;;;;19.77;13.07;;;;;;;;;;4958049;29;20019;-46
2021/04/26 03:00:11;;;;;;;19.20;13.13;;;;;;;;;;4957653;28;20023;-46
2021/04/26 03:02:38;;;;;;;19.80;12.80;;;;;;;;;;4957720;29;20542;-46
2021/04/26 03:05:06;;;;;;;19.35;12.77;;;;;;;;;;4957555;29;20030;-46
2021/04/26 03:07:34;;;;;;;16.40;12.38;;;;;;;;;;4957615;29;20051;-46
2021/04/26 03:10:01;;;;;;;18.73;11.85;;;;;;;;;;4957464;28;20023;-46
2021/04/26 03:12:31;;;;;;;16.77;12.23;;;;;;;;;;4957458;29;20391;-46
2021/04/26 03:14:57;;;;;;;17.70;11.43;;;;;;;;;;4956335;28;20361;-46
2021/04/26 03:17:23;;;;;;;16.65;11.50;;;;;;;;;;4957392;29;20031;-46
2021/04/26 03:19:50;;;;;;;17.05;11.70;;;;;;;;;;4957348;28;20082;-46
2021/04/26 03:22:16;;;;;;;14.02;10.85;;;;;;;;;;4957351;29;20051;-46
2021/04/26 03:24:42;;;;;;;15.45;10.63;;;;;;;;;;4957270;29;20027;-46
2021/04/26 03:27:09;;;;;;;18.50;10.82;;;;;;;;;;4957509;29;20031;-46
2021/04/26 03:29:40;;;;;;;21.95;10.90;;;;;;;;;;4957471;28;20078;-46
2021/04/26 03:32:06;;;;;;;19.30;11.50;;;;;;;;;;4957451;28;20039;-46
2021/04/26 03:34:33;;;;;;;18.83;10.70;;;;;;;;;;4957177;29;20024;-46
2021/04/26 03:37:00;;;;;;;16.98;10.07;;;;;;;;;;4957015;29;20030;-46
2021/04/26 03:39:26;;;;;;;16.15;9.73;;;;;;;;;;4956664;28;20023;-45
2021/04/26 03:41:52;;;;;;;18.27;9.95;;;;;;;;;;4956975;29;20110;-45
2021/04/26 03:44:18;;;;;;;20.10;9.90;;;;;;;;;;4957067;28;20042;-45
2021/04/26 03:46:54;;;;;;;14.75;8.90;;;;;;;;;;4957053;29;20047;-44
2021/04/26 03:49:20;;;;;;;14.55;8.88;;;;;;;;;;4956960;29;20050;-45
2021/04/26 03:51:46;;;;;;;13.70;8.68;;;;;;;;;;4956932;29;20491;-45
2021/04/26 03:54:12;;;;;;;16.88;8.63;;;;;;;;;;4956828;29;20027;-45
2021/04/26 03:56:39;;;;;;;17.83;9.63;;;;;;;;;;4956840;28;20066;-44
2021/04/26 03:59:05;;;;;;;14.52;8.60;;;;;;;;;;4956680;28;20110;-45
2021/04/26 04:01:31;;;;;;;11.20;7.22;;;;;;;;;;4956598;28;20034;-47
2021/04/26 04:03:57;;;;;;;15.05;7.88;;;;;;;;;;4956483;28;20155;-45
2021/04/26 04:06:23;;;;;;;13.98;7.32;;;;;;;;;;4956248;29;20489;-45
2021/04/26 04:08:49;;;;;;;13.52;7.47;;;;;;;;;;4956584;28;20117;-46
2021/04/26 04:11:15;;;;;;;11.93;7.10;;;;;;;;;;4956248;28;20027;-45
2021/04/26 04:13:42;;;;;;;13.82;7.32;;;;;;;;;;4956821;29;20039;-45
2021/04/26 04:16:08;;;;;;;17.70;7.07;;;;;;;;;;4956340;29;20046;-45
2021/04/26 04:18:34;;;;;;;12.48;6.13;;;;;;;;;;4956389;29;20042;-46
2021/04/26 04:21:01;;;;;;;11.45;5.72;;;;;;;;;;4956320;28;20019;-46
2021/04/26 04:23:29;;;;;;;11.25;6.18;;;;;;;;;;4956203;29;20037;-46
2021/04/26 04:25:55;;;;;;;10.23;6.13;;;;;;;;;;4956292;29;20023;-45
2021/04/26 04:28:21;;;;;;;17.60;5.93;;;;;;;;;;4956191;28;20459;-45
2021/04/26 04:30:47;;;;;;;14.93;6.78;;;;;;;;;;4956083;29;20027;-45
2021/04/26 04:33:13;;;;;;;25.38;12.35;;;;;;;;;;4956085;29;20047;-46
2021/04/26 04:35:40;;;;;;;30.75;17.42;;;;;;;;;;4955895;28;20027;-46
2021/04/26 04:38:08;;;;;;;34.85;18.23;;;;;;;;;;4956212;29;20488;-45
2021/04/26 04:40:35;;;;;;;28.92;17.08;;;;;;;;;;4956106;29;20110;-45
2021/04/26 04:43:01;;;;;;;24.23;12.13;;;;;;;;;;4955845;28;20027;-45
2021/04/26 04:45:29;;;;;;;26.23;12.63;;;;;;;;;;4956184;28;20027;-46
2021/04/26 04:47:55;;;;;;;20.65;10.05;;;;;;;;;;4955936;29;20023;-45
2021/04/26 04:50:21;;;;;;;14.02;8.65;;;;;;;;;;4955696;28;20045;-45
2021/04/26 04:52:47;;;;;;;13.93;8.90;;;;;;;;;;4955343;29;20468;-46
2021/04/26 04:55:13;;;;;;;26.27;13.70;;;;;;;;;;4955782;29;20027;-46
2021/04/26 04:57:40;;;;;;;33.55;14.50;;;;;;;;;;4954408;28;20039;-45
2021/04/26 05:00:06;;;;;;;30.33;16.98;;;;;;;;;;4955767;29;20050;-46
2021/04/26 05:02:32;;;;;;;31.02;15.48;;;;;;;;;;4955687;29;20031;-46
2021/04/26 05:04:58;;;;;;;17.40;10.70;;;;;;;;;;4955477;28;20030;-45
2021/04/26 05:07:24;;;;;;;15.50;7.25;;;;;;;;;;4955497;28;20134;-46
2021/04/26 05:09:51;;;;;;;21.50;12.30;;;;;;;;;;4955692;29;20027;-46
2021/04/26 05:12:17;;;;;;;21.85;10.45;;;;;;;;;;4955249;29;20038;-44
2021/04/26 05:14:45;;;;;;;35.92;20.27;;;;;;;;;;4955464;29;20361;-44
2021/04/26 05:17:14;;;;;;;48.53;24.15;;;;;;;;;;4955299;29;20034;-44
2021/04/26 05:19:40;;;;;;;13.80;8.73;;;;;;;;;;4955538;29;20420;-46
2021/04/26 05:22:06;;;;;;;19.30;10.95;;;;;;;;;;4955604;29;20034;-44
2021/04/26 05:24:33;;;;;;;17.15;8.85;;;;;;;;;;4955383;29;20032;-44
2021/04/26 05:26:59;;;;;;;15.27;8.90;;;;;;;;;;4955204;29;20464;-44
2021/04/26 05:29:27;;;;;;;16.55;7.47;;;;;;;;;;4955593;28;20058;-44
2021/04/26 05:31:53;;;;;;;15.07;5.57;;;;;;;;;;4955341;28;20056;-44
2021/04/26 05:34:19;;;;;;;12.40;5.63;;;;;;;;;;4955314;29;20031;-43
2021/04/26 05:36:46;;;;;;;14.18;6.38;;;;;;;;;;4954992;29;20079;-44
2021/04/26 05:39:12;;;;;;;17.15;9.18;;;;;;;;;;4955384;29;20036;-45
2021/04/26 05:41:38;;;;;;;16.90;7.80;;;;;;;;;;4955202;29;20042;-45
2021/04/26 05:44:04;;;;;;;18.77;8.70;;;;;;;;;;4955388;29;20111;-44
2021/04/26 05:46:30;;;;;;;14.10;7.47;;;;;;;;;;4955032;29;20027;-45
2021/04/26 05:48:59;;;;;;;12.38;5.43;;;;;;;;;;4955114;29;20023;-45
2021/04/26 05:51:27;;;;;;;14.95;8.13;;;;;;;;;;4954988;29;20050;-45
2021/04/26 05:53:53;;;;;;;13.50;6.72;;;;;;;;;;4954956;29;20027;-45
2021/04/26 05:56:19;;;;;;;7.20;4.55;;;;;;;;;;4955064;29;20071;-44
2021/04/26 05:58:51;;;;;;;8.70;4.68;;;;;;;;;;4955083;29;20027;-45
2021/04/26 06:01:17;;;;;;;8.95;5.05;;;;;;;;;;4955186;28;20376;-46
2021/04/26 06:03:43;;;;;;;7.15;4.47;;;;;;;;;;4958041;28;20028;-44
2021/04/26 06:06:09;;;;;;;18.63;5.18;;;;;;;;;;4958498;28;20051;-44
2021/04/26 06:08:35;;;;;;;7.95;4.40;;;;;;;;;;4958664;29;20539;-45
2021/04/26 06:11:02;;;;;;;10.77;4.35;;;;;;;;;;4958496;28;20095;-45
2021/04/26 06:13:28;;;;;;;7.68;4.38;;;;;;;;;;4958712;29;20043;-45
2021/04/26 06:15:55;;;;;;;6.25;4.10;;;;;;;;;;4958615;29;20026;-45
2021/04/26 06:18:22;;;;;;;9.93;3.92;;;;;;;;;;4958531;29;20023;-45
2021/04/26 06:20:49;;;;;;;10.57;4.80;;;;;;;;;;4958410;29;20114;-45
2021/04/26 06:23:16;;;;;;;9.52;4.40;;;;;;;;;;4958451;29;20031;-44
2021/04/26 06:25:43;;;;;;;8.85;4.55;;;;;;;;;;4958308;28;20027;-45
2021/04/26 06:28:09;;;;;;;8.88;5.07;;;;;;;;;;4958625;28;20519;-45
2021/04/26 06:30:36;;;;;;;7.50;4.63;;;;;;;;;;4958506;29;20361;-45
2021/04/26 06:33:03;;;;;;;12.20;4.40;;;;;;;;;;4958252;28;20046;-45
2021/04/26 06:35:29;;;;;;;10.00;4.13;;;;;;;;;;4958140;29;20031;-45
2021/04/26 06:37:55;;;;;;;12.00;4.53;;;;;;;;;;4958154;29;20106;-45
2021/04/26 06:40:22;;;;;;;11.25;5.10;;;;;;;;;;4958283;29;20023;-45
2021/04/26 06:42:48;;;;;;;14.65;5.53;;;;;;;;;;4958288;29;20031;-45
2021/04/26 06:45:20;;;;;;;8.40;3.95;;;;;;;;;;4958041;28;20071;-45
2021/04/26 06:47:47;;;;;;;7.63;4.32;;;;;;;;;;4958005;29;20042;-45
2021/04/26 06:50:13;;;;;;;10.00;4.72;;;;;;;;;;4957984;29;20026;-45
2021/04/26 06:52:39;;;;;;;9.18;4.38;;;;;;;;;;4957976;29;20035;-45
2021/04/26 06:55:06;;;;;;;12.60;4.65;;;;;;;;;;4957753;28;20055;-45
2021/04/26 06:57:32;;;;;;;9.48;4.90;;;;;;;;;;4958045;28;20429;-45
2021/04/26 06:59:58;;;;;;;9.75;4.57;;;;;;;;;;4957685;28;20028;-45
2021/04/26 07:02:24;;;;;;;7.43;4.70;;;;;;;;;;4957676;28;20019;-45
2021/04/26 07:04:50;;;;;;;10.07;4.75;;;;;;;;;;4957660;29;20031;-45
2021/04/26 07:07:16;;;;;;;14.38;4.93;;;;;;;;;;4957573;29;20130;-45
2021/04/26 07:09:42;;;;;;;7.55;4.75;;;;;;;;;;4957494;29;20028;-46
2021/04/26 07:12:09;;;;;;;9.68;5.18;;;;;;;;;;4957308;28;20465;-46
2021/04/26 07:14:35;;;;;;;9.88;5.10;;;;;;;;;;4956822;28;20102;-45
2021/04/26 07:17:01;;;;;;;12.98;5.93;;;;;;;;;;4957724;28;20038;-45
2021/04/26 07:19:27;;;;;;;10.35;5.15;;;;;;;;;;4957324;29;20023;-45
2021/04/26 07:21:53;;;;;;;11.68;6.80;;;;;;;;;;4957325;29;20027;-46
2021/04/26 07:24:19;;;;;;;9.57;5.45;;;;;;;;;;4957360;29;20612;-46
2021/04/26 07:26:45;;;;;;;13.52;5.93;;;;;;;;;;4957440;28;20038;-46
2021/04/26 07:29:11;;;;;;;23.77;9.82;;;;;;;;;;4957389;29;20031;-46
2021/04/26 07:31:40;;;;;;;16.83;9.23;;;;;;;;;;4955850;28;20041;-45
2021/04/26 07:34:06;;;;;;;10.07;5.65;;;;;;;;;;4957219;28;20046;-47
2021/04/26 07:36:32;;;;;;;12.15;6.40;;;;;;;;;;4956857;28;20023;-47
2021/04/26 07:38:58;;;;;;;25.95;16.25;;;;;;;;;;4957133;29;20090;-46
2021/04/26 07:41:27;;;;;;;20.45;10.90;;;;;;;;;;4956910;29;20031;-47
2021/04/26 07:43:53;;;;;;;19.15;9.45;;;;;;;;;;4961890;28;20029;-46
2021/04/26 07:46:19;;;;;;;26.13;11.27;;;;;;;;;;4965674;28;20023;-47
2021/04/26 07:48:45;;;;;;;11.18;5.38;;;;;;;;;;4965672;28;20074;-47
2021/04/26 07:51:11;;;;;;;17.08;6.75;;;;;;;;;;4961703;28;20027;-47
2021/04/26 07:53:37;;;;;;;19.00;11.10;;;;;;;;;;4956676;28;20042;-47
2021/04/26 07:56:03;;;;;;;9.73;4.82;;;;;;;;;;4956559;29;20078;-46
2021/04/26 07:58:34;;;;;;;12.57;5.22;;;;;;;;;;4961929;28;20037;-46
2021/04/26 08:01:01;;;;;;;14.95;9.00;;;;;;;;;;4976094;28;20089;-47
2021/04/26 08:03:27;;;;;;;11.18;6.43;;;;;;;;;;4975945;28;20061;-44
2021/04/26 08:05:53;;;;;;;33.15;17.05;;;;;;;;;;4975635;28;20081;-46
2021/04/26 08:08:20;;;;;;;15.38;7.45;;;;;;;;;;4975885;28;20031;-45
2021/04/26 08:10:46;;;;;;;23.63;7.93;;;;;;;;;;4975774;28;20471;-45
2021/04/26 08:13:12;;;;;;;24.67;9.90;;;;;;;;;;4975613;28;20034;-45
2021/04/26 08:15:39;;;;;;;14.73;7.20;;;;;;;;;;4976027;28;20022;-46
2021/04/26 08:18:05;;;;;;;17.27;7.28;;;;;;;;;;4975970;28;20030;-46
2021/04/26 08:20:35;;;;;;;10.85;5.30;;;;;;;;;;4975688;28;20027;-46
2021/04/26 08:23:01;;;;;;;10.00;6.22;;;;;;;;;;4975723;28;20034;-46
2021/04/26 08:25:27;;;;;;;18.52;7.75;;;;;;;;;;4975356;28;20483;-46
2021/04/26 08:27:55;;;;;;;10.15;4.93;;;;;;;;;;4975739;28;20026;-46
2021/04/26 08:30:22;;;;;;;7.00;4.57;;;;;;;;;;4975555;28;20023;-46
2021/04/26 08:32:48;;;;;;;8.30;4.55;;;;;;;;;;4975501;28;20038;-46
2021/04/26 08:35:14;;;;;;;13.25;5.55;;;;;;;;;;4975613;28;20027;-46
2021/04/26 08:37:40;;;;;;;13.40;5.95;;;;;;;;;;4975531;28;20031;-46
2021/04/26 08:40:06;;;;;;;10.55;4.90;;;;;;;;;;4975257;28;20023;-46
2021/04/26 08:42:33;;;;;;;9.02;4.68;;;;;;;;;;4975342;28;20026;-46
2021/04/26 08:44:59;;;;;;;8.10;4.85;;;;;;;;;;4975361;28;20026;-46
2021/04/26 08:47:25;;;;;;;7.93;4.80;;;;;;;;;;4975294;28;20023;-46
2021/04/26 08:49:58;;;;;;;8.40;4.70;;;;;;;;;;4975274;28;20027;-46
2021/04/26 08:52:26;;;;;;;10.85;4.90;;;;;;;;;;4975013;28;20483;-46
2021/04/26 08:54:54;;;;;;;12.35;5.20;;;;;;;;;;4975206;28;20027;-47
2021/04/26 08:57:21;;;;;;;10.30;5.50;;;;;;;;;;4975371;28;20034;-46
2021/04/26 08:59:47;;;;;;;11.40;5.10;;;;;;;;;;4975179;28;20050;-46
2021/04/26 09:02:14;;;;;;;12.13;4.95;;;;;;;;;;4975154;28;20027;-46
2021/04/26 09:04:50;;;;;;;11.73;4.53;;;;;;;;;;4974812;28;20029;-46
2021/04/26 09:07:17;;;;;;;11.43;4.75;;;;;;;;;;4974891;28;20059;-47
2021/04/26 09:09:45;;;;;;;8.73;4.60;;;;;;;;;;4974831;28;20050;-47
2021/04/26 09:12:15;;;;;;;7.50;5.10;;;;;;;;;;4975012;28;20035;-46
2021/04/26 09:14:46;;;;;;;8.07;4.80;;;;;;;;;;4974829;28;20041;-47
2021/04/26 09:17:27;;;;;;;11.60;5.20;;;;;;;;;;4974839;28;20476;-47
2021/04/26 09:19:54;;;;;;;7.55;5.03;;;;;;;;;;4974943;28;20090;-45
2021/04/26 09:22:39;;;;;;;9.82;5.22;;;;;;;;;;4974637;28;20420;-47
2021/04/26 09:25:19;;;;;;;7.97;4.47;;;;;;;;;;4974809;28;20114;-47
2021/04/26 09:27:52;;;;;;;8.50;4.80;;;;;;;;;;4974861;28;20073;-47
2021/04/26 09:30:36;;;;;;;9.07;4.72;;;;;;;;;;4974740;28;20085;-46
2021/04/26 09:33:21;;;;;;;9.30;4.75;;;;;;;;;;4974766;28;20034;-46
2021/04/26 09:36:23;;;;;;;10.88;4.85;;;;;;;;;;4974567;28;20042;-46
2021/04/26 09:38:50;;;;;;;10.15;5.22;;;;;;;;;;4933795;29;20040;-47
2021/04/26 09:41:16;;;;;;;8.23;4.38;;;;;;;;;;4933995;29;20031;-46
2021/04/26 09:43:44;;;;;;;8.95;5.28;;;;;;;;;;4934651;29;20082;-47
2021/04/26 09:46:13;;;;;;;7.95;4.60;;;;;;;;;;4934052;29;20078;-49
2021/04/26 09:48:40;;;;;;;11.23;5.22;;;;;;;;;;4934101;29;20032;-46
2021/04/26 09:51:06;;;;;;;7.90;4.80;;;;;;;;;;4934042;29;20496;-46
2021/04/26 09:53:45;;;;;;;6.35;4.00;;;;;;;;;;4933913;29;20035;-47
2021/04/26 09:56:22;;;;;;;11.25;3.97;;;;;;;;;;4933955;29;20119;-46
2021/04/26 09:58:53;;;;;;;9.20;4.95;;;;;;;;;;4934099;29;20036;-47
2021/04/26 10:01:19;;;;;;;15.85;4.30;;;;;;;;;;4933887;28;20031;-46
2021/04/26 10:03:45;;;;;;;8.75;4.18;;;;;;;;;;4933963;29;20028;-47
2021/04/26 10:06:15;;;;;;;18.38;4.47;;;;;;;;;;4925741;29;20092;-46
2021/04/26 10:08:43;;;;;;;6.78;3.53;;;;;;;;;;4934405;29;20044;-46
2021/04/26 10:11:10;;;;;;;10.98;3.75;;;;;;;;;;4933878;29;20084;-46
2021/04/26 10:13:37;;;;;;;7.40;4.10;;;;;;;;;;4933783;29;20091;-48
2021/04/26 10:16:04;;;;;;;15.27;4.63;;;;;;;;;;4970031;28;20031;-47
2021/04/26 10:18:38;;;;;;;9.35;4.07;;;;;;;;;;4974258;28;20114;-47
2021/04/26 10:21:19;;;;;;;9.57;4.38;;;;;;;;;;4973939;28;20023;-46
2021/04/26 10:23:49;;;;;;;19.08;6.35;;;;;;;;;;4974203;28;20022;-47
2021/04/26 10:26:33;;;;;;;9.75;5.82;;;;;;;;;;4974113;28;20027;-47
2021/04/26 10:29:08;;;;;;;7.75;4.15;;;;;;;;;;4974394;28;20031;-47
2021/04/26 10:32:04;;;;;;;6.00;3.97;;;;;;;;;;4974091;28;20039;-47
2021/04/26 10:34:43;;;;;;;5.90;3.55;;;;;;;;;;4973287;28;20113;-47
2021/04/26 10:37:15;;;;;;;9.95;3.85;;;;;;;;;;4974129;28;20030;-47
2021/04/26 10:40:01;;;;;;;8.18;3.65;;;;;;;;;;4974114;28;20099;-47
2021/04/26 10:42:34;;;;;;;6.22;3.83;;;;;;;;;;4974178;28;20027;-47
2021/04/26 10:45:03;;;;;;;6.45;3.80;;;;;;;;;;4974048;28;20031;-48
2021/04/26 10:47:29;;;;;;;8.02;3.45;;;;;;;;;;4974023;28;20019;-47
2021/04/26 10:50:01;;;;;;;6.93;4.28;;;;;;;;;;4975372;28;20443;-47
2021/04/26 10:52:30;;;;;;;8.90;4.22;;;;;;;;;;4977007;28;20033;-47
2021/04/26 10:55:04;;;;;;;5.32;3.50;;;;;;;;;;4977757;28;20035;-47
2021/04/26 10:57:36;;;;;;;6.78;3.70;;;;;;;;;;4977319;28;20027;-47
2021/04/26 11:00:21;;;;;;;6.97;3.78;;;;;;;;;;4977233;28;20468;-47
2021/04/26 11:02:53;;;;;;;9.07;3.53;;;;;;;;;;4977284;28;20027;-48
2021/04/26 11:05:22;;;;;;;6.43;4.53;;;;;;;;;;4977089;28;20035;-47
2021/04/26 11:08:13;;;;;;;7.90;4.20;;;;;;;;;;4977124;28;20051;-47
2021/04/26 11:10:37;;;;;;;6.20;3.80;;;;;;;;;;4976534;28;20043;-55
2021/04/26 11:13:22;;;;;;;7.72;3.97;;;;;;;;;;4976880;28;20065;-47
2021/04/26 11:16:06;;;;;;;6.05;3.53;;;;;;;;;;4977159;28;20030;-52
2021/04/26 11:18:55;;;;;;;5.75;3.13;;;;;;;;;;4977040;28;20022;-47
2021/04/26 11:21:39;;;;;;;5.00;3.20;;;;;;;;;;4969925;28;20195;-47
2021/04/26 11:24:05;;;;;;;6.07;3.65;;;;;;;;;;4977085;28;20050;-55
2021/04/26 11:26:31;;;;;;;8.32;3.25;;;;;;;;;;4959681;28;20031;-47
2021/04/26 11:29:08;;;;;;;5.68;3.90;;;;;;;;;;4976809;28;20019;-47
2021/04/26 11:31:58;;;;;;;4.70;3.50;;;;;;;;;;4976699;28;20093;-48
2021/04/26 11:34:24;;;;;;;10.18;3.30;;;;;;;;;;4971008;28;20118;-47
2021/04/26 11:37:10;;;;;;;5.90;3.70;;;;;;;;;;4976837;28;20045;-47
2021/04/26 11:39:37;;;;;;;11.85;3.95;;;;;;;;;;4976420;28;20074;-46
2021/04/26 11:42:07;;;;;;;7.78;3.80;;;;;;;;;;4976524;28;20035;-47
2021/04/26 11:44:34;;;;;;;5.47;3.40;;;;;;;;;;4976665;28;20155;-48
2021/04/26 11:47:10;;;;;;;6.75;3.80;;;;;;;;;;4976443;28;20026;-49
2021/04/26 11:49:38;;;;;;;9.32;3.42;;;;;;;;;;4976552;28;20019;-47
2021/04/26 11:52:17;;;;;;;10.27;3.53;;;;;;;;;;4976222;28;20023;-47
2021/04/26 11:54:44;;;;;;;6.03;3.47;;;;;;;;;;4976430;28;20487;-46
2021/04/26 11:57:12;;;;;;;8.90;3.80;;;;;;;;;;4976317;28;20387;-47
2021/04/26 11:59:48;;;;;;;7.70;3.90;;;;;;;;;;4976104;28;20089;-47
2021/04/26 12:02:23;;;;;;;7.75;3.78;;;;;;;;;;4976051;28;20026;-46
2021/04/26 12:04:52;;;;;;;7.63;3.75;;;;;;;;;;4976143;28;20034;-47
2021/04/26 12:07:18;;;;;;;7.68;4.07;;;;;;;;;;4975992;28;20529;-46
2021/04/26 12:09:46;;;;;;;7.00;4.03;;;;;;;;;;4975992;28;20030;-46
2021/04/26 12:12:12;;;;;;;7.35;3.38;;;;;;;;;;4975713;28;20018;-46
2021/04/26 12:14:44;;;;;;;4.78;3.45;;;;;;;;;;4975977;28;20035;-46
2021/04/26 12:17:18;;;;;;;7.65;3.45;;;;;;;;;;4975914;28;20034;-46
2021/04/26 12:19:44;;;;;;;6.97;3.42;;;;;;;;;;4975857;28;20082;-46
2021/04/26 12:22:10;;;;;;;7.18;3.65;;;;;;;;;;4975790;28;20106;-47
2021/04/26 12:24:37;;;;;;;7.53;4.28;;;;;;;;;;4975945;28;20035;-46
2021/04/26 12:27:16;;;;;;;9.73;3.80;;;;;;;;;;4972053;28;20040;-46
2021/04/26 12:29:42;;;;;;;16.15;9.40;;;;;;;;;;4961303;28;20035;-48
2021/04/26 12:32:09;;;;;;;10.02;4.82;;;;;;;;;;4965967;28;20015;-49
2021/04/26 12:34:54;;;;;;;15.95;7.05;;;;;;;;;;4965450;28;20055;-49
2021/04/26 12:37:22;;;;;;;39.95;22.38;;;;;;;;;;4959790;28;20035;-48
2021/04/26 12:39:49;;;;;;;31.13;16.10;;;;;;;;;;4955898;29;20027;-49
2021/04/26 12:42:16;;;;;;;28.38;11.88;;;;;;;;;;4956071;28;20118;-48
2021/04/26 12:44:43;;;;;;;46.63;24.35;;;;;;;;;;4955844;29;20035;-46
2021/04/26 12:47:16;;;;;;;15.38;8.75;;;;;;;;;;4956040;29;20031;-47
2021/04/26 12:49:42;;;;;;;16.80;7.88;;;;;;;;;;4955665;29;20107;-46
2021/04/26 12:52:16;;;;;;;25.70;13.95;;;;;;;;;;4955483;28;20027;-45
2021/04/26 12:55:00;;;;;;;33.20;19.98;;;;;;;;;;4955518;29;20035;-47
2021/04/26 12:57:27;;;;;;;81.80;40.25;;;;;;;;;;4955601;28;20035;-47
2021/04/26 12:59:53;;;;;;;49.30;23.27;;;;;;;;;;4955536;29;20027;-46
2021/04/26 13:02:23;;;;;;;44.35;24.48;;;;;;;;;;4955568;29;20024;-46
2021/04/26 13:04:50;;;;;;;36.92;20.55;;;;;;;;;;4955365;28;20106;-47
2021/04/26 13:07:16;;;;;;;33.58;18.20;;;;;;;;;;4962338;28;20046;-46
2021/04/26 13:09:42;;;;;;;44.13;27.00;;;;;;;;;;4974591;28;20034;-47
2021/04/26 13:12:09;;;;;;;38.58;23.88;;;;;;;;;;4973990;28;20033;-45
2021/04/26 13:14:35;;;;;;;19.40;9.85;;;;;;;;;;4974554;28;20142;-46
2021/04/26 13:17:03;;;;;;;55.03;26.10;;;;;;;;;;4974690;28;20030;-46
2021/04/26 13:19:29;;;;;;;22.75;12.60;;;;;;;;;;4974387;28;20035;-45
2021/04/26 13:21:56;;;;;;;31.33;14.18;;;;;;;;;;4966322;28;20018;-45
2021/04/26 13:24:31;;;;;;;20.27;10.48;;;;;;;;;;4973146;28;20058;-45
2021/04/26 13:27:01;;;;;;;10.68;5.28;;;;;;;;;;4974461;28;20031;-46
2021/04/26 13:29:27;;;;;;;10.07;4.47;;;;;;;;;;4974696;28;20070;-45
2021/04/26 13:31:57;;;;;;;15.02;6.63;;;;;;;;;;4974447;28;20022;-45
2021/04/26 13:34:27;;;;;;;8.77;5.13;;;;;;;;;;4974063;28;20113;-46
2021/04/26 13:36:54;;;;;;;9.90;5.67;;;;;;;;;;4957412;28;20027;-46
2021/04/26 13:39:21;;;;;;;13.50;6.72;;;;;;;;;;4950637;28;20049;-46
2021/04/26 13:41:47;;;;;;;31.75;17.83;;;;;;;;;;4962162;28;20487;-46
2021/04/26 13:44:14;;;;;;;10.70;5.57;;;;;;;;;;4966366;28;20031;-46
2021/04/26 13:46:41;;;;;;;6.72;3.67;;;;;;;;;;4974407;28;20027;-44
2021/04/26 13:49:07;;;;;;;22.65;11.88;;;;;;;;;;4974451;28;20536;-45
2021/04/26 13:51:36;;;;;;;62.28;37.47;;;;;;;;;;4974245;28;20023;-45
2021/04/26 13:54:03;;;;;;;26.52;14.88;;;;;;;;;;4974419;28;20071;-49
2021/04/26 13:56:29;;;;;;;12.07;7.45;;;;;;;;;;4974445;28;20098;-46
2021/04/26 13:58:55;;;;;;;8.40;5.13;;;;;;;;;;4957092;28;20034;-45
2021/04/26 14:01:21;;;;;;;8.30;4.50;;;;;;;;;;4974229;28;20487;-45
2021/04/26 14:03:47;;;;;;;7.10;4.00;;;;;;;;;;4974318;28;20471;-45
2021/04/26 14:06:14;;;;;;;10.70;4.82;;;;;;;;;;4974202;28;20407;-44
2021/04/26 14:08:41;;;;;;;10.85;4.97;;;;;;;;;;4974458;28;20023;-44
2021/04/26 14:11:07;;;;;;;12.25;6.00;;;;;;;;;;4974216;28;20027;-45
2021/04/26 14:13:34;;;;;;;12.13;5.07;;;;;;;;;;4974067;28;20031;-46
2021/04/26 14:16:02;;;;;;;9.93;5.22;;;;;;;;;;4974003;28;20053;-45
2021/04/26 14:18:28;;;;;;;7.07;4.55;;;;;;;;;;4974095;28;20041;-46
2021/04/26 14:20:54;;;;;;;9.52;5.18;;;;;;;;;;4974256;28;20027;-46
2021/04/26 14:23:20;;;;;;;7.88;3.90;;;;;;;;;;4974782;28;20085;-46
2021/04/26 14:25:46;;;;;;;12.18;4.50;;;;;;;;;;4977844;28;20395;-46
2021/04/26 14:28:14;;;;;;;8.77;4.78;;;;;;;;;;4977751;28;20026;-44
2021/04/26 14:30:41;;;;;;;8.65;5.30;;;;;;;;;;4960430;28;20039;-45
2021/04/26 14:33:07;;;;;;;8.20;4.88;;;;;;;;;;4977787;28;20379;-46
2021/04/26 14:35:34;;;;;;;8.23;5.40;;;;;;;;;;4977413;28;20022;-45
2021/04/26 14:38:01;;;;;;;15.68;5.20;;;;;;;;;;4977974;28;20053;-45